createdAt,value
2023-05-17T00:00:52.055Z,68.68
2023-05-17T00:03:19.855Z,69.84
2023-05-17T00:05:47.383Z,70.59
2023-05-17T00:08:14.958Z,69.82
2023-05-17T00:10:43.398Z,69.62
2023-05-17T00:13:11.166Z,68.69
2023-05-17T00:15:38.598Z,68.43
2023-05-17T00:18:06.595Z,68.27
2023-05-17T00:20:34.835Z,68.06
2023-05-17T00:23:03.120Z,67.78
2023-05-17T00:25:31.073Z,67.50
2023-05-17T00:27:58.783Z,67.46
2023-05-17T00:30:26.273Z,67.33
2023-05-17T00:32:54.059Z,67.11
2023-05-17T00:35:21.840Z,66.92
2023-05-17T00:37:49.425Z,66.87
2023-05-17T00:40:17.409Z,66.67
2023-05-17T00:42:44.842Z,66.67
2023-05-17T00:45:12.339Z,66.53
2023-05-17T00:47:41.053Z,66.57
2023-05-17T00:50:08.982Z,66.41
2023-05-17T00:52:36.700Z,66.50
2023-05-17T00:55:04.733Z,66.78
2023-05-17T00:57:32.944Z,66.83
2023-05-17T01:00:02.023Z,67.02
2023-05-17T01:02:32.697Z,67.09
2023-05-17T01:05:00.596Z,67.12
2023-05-17T01:07:29.166Z,66.95
2023-05-17T01:09:57.348Z,66.84
2023-05-17T01:12:37.207Z,67.27
2023-05-17T01:15:13.973Z,67.34
2023-05-17T01:17:59.798Z,67.30
2023-05-17T01:20:44.590Z,67.43
2023-05-17T01:23:36.114Z,67.59
2023-05-17T01:26:09.502Z,67.64
2023-05-17T01:28:41.060Z,67.77
2023-05-17T01:31:09.612Z,67.81
2023-05-17T01:33:38.169Z,67.76
2023-05-17T01:36:06.277Z,67.69
2023-05-17T01:38:34.802Z,67.65
2023-05-17T01:41:09.607Z,67.81
2023-05-17T01:43:58.401Z,68.86
2023-05-17T01:46:32.910Z,68.44
2023-05-17T01:49:13.568Z,68.30
2023-05-17T01:51:48.965Z,67.94
2023-05-17T01:54:22.424Z,67.50
2023-05-17T01:56:56.626Z,67.19
2023-05-17T01:59:25.590Z,67.21
2023-05-17T02:01:57.469Z,66.85
2023-05-17T02:04:25.388Z,66.71
2023-05-17T02:06:53.404Z,66.77
2023-05-17T02:09:21.068Z,66.62
2023-05-17T02:11:49.274Z,66.68
2023-05-17T02:14:17.006Z,67.15
2023-05-17T02:16:44.551Z,67.41
2023-05-17T02:19:14.217Z,67.18
2023-05-17T02:21:41.996Z,67.63
2023-05-17T02:24:09.675Z,67.36
2023-05-17T02:26:37.392Z,67.15
2023-05-17T02:29:05.138Z,66.77
2023-05-17T02:31:32.654Z,66.70
2023-05-17T02:34:00.498Z,66.46
2023-05-17T02:36:28.449Z,66.14
2023-05-17T02:38:55.965Z,66.02
2023-05-17T02:41:23.445Z,65.83
2023-05-17T02:43:51.459Z,65.84
2023-05-17T02:46:18.922Z,65.68
2023-05-17T02:48:46.422Z,65.46
2023-05-17T02:51:14.306Z,65.65
2023-05-17T02:53:41.874Z,65.98
2023-05-17T02:56:09.589Z,66.45
2023-05-17T02:58:37.360Z,66.43
2023-05-17T03:01:05.704Z,66.30
2023-05-17T03:03:33.473Z,66.41
2023-05-17T03:06:02.637Z,66.94
2023-05-17T03:08:30.359Z,66.91
2023-05-17T03:10:58.496Z,66.85
2023-05-17T03:13:26.356Z,66.70
2023-05-17T03:15:53.854Z,66.80
2023-05-17T03:18:21.718Z,66.62
2023-05-17T03:20:49.675Z,66.57
2023-05-17T03:23:18.230Z,67.05
2023-05-17T03:25:46.340Z,66.96
2023-05-17T03:28:14.581Z,67.16
2023-05-17T03:30:42.138Z,67.09
2023-05-17T03:33:09.964Z,66.94
2023-05-17T03:35:37.889Z,67.02
2023-05-17T03:38:05.363Z,67.56
2023-05-17T03:40:33.345Z,68.55
2023-05-17T03:43:01.555Z,68.43
2023-05-17T03:45:29.782Z,69.12
2023-05-17T03:47:57.347Z,69.85
2023-05-17T03:50:26.003Z,69.24
2023-05-17T03:52:53.464Z,69.82
2023-05-17T03:55:20.958Z,69.32
2023-05-17T03:57:49.479Z,69.61
2023-05-17T04:00:21.828Z,69.72
2023-05-17T04:02:50.494Z,69.31
2023-05-17T04:05:19.615Z,69.17
2023-05-17T04:07:47.794Z,68.81
2023-05-17T04:10:15.317Z,68.61
2023-05-17T04:12:43.134Z,68.82
2023-05-17T04:15:11.139Z,68.44
2023-05-17T04:17:39.091Z,68.38
2023-05-17T04:20:07.371Z,68.31
2023-05-17T04:22:35.114Z,68.28
2023-05-17T04:25:02.633Z,68.17
2023-05-17T04:27:30.564Z,68.80
2023-05-17T04:29:58.420Z,68.33
2023-05-17T04:32:26.127Z,68.71
2023-05-17T04:34:54.075Z,69.09
2023-05-17T04:37:21.752Z,68.71
2023-05-17T04:39:49.998Z,69.24
2023-05-17T04:42:17.797Z,69.15
2023-05-17T04:44:45.943Z,69.82
2023-05-17T04:47:14.062Z,69.53
2023-05-17T04:49:41.912Z,70.07
2023-05-17T04:52:09.411Z,69.38
2023-05-17T04:54:36.930Z,68.72
2023-05-17T04:57:05.167Z,68.55
2023-05-17T04:59:34.501Z,68.39
2023-05-17T05:02:02.068Z,69.08
2023-05-17T05:04:30.151Z,68.79
2023-05-17T05:06:57.635Z,68.78
2023-05-17T05:09:25.091Z,67.89
2023-05-17T05:11:53.183Z,67.43
2023-05-17T05:14:21.042Z,67.35
2023-05-17T05:16:49.328Z,67.38
2023-05-17T05:19:17.447Z,67.38
2023-05-17T05:21:46.447Z,67.55
2023-05-17T05:24:14.187Z,68.33
2023-05-17T05:26:42.917Z,67.49
2023-05-17T05:29:10.633Z,67.50
2023-05-17T05:31:39.181Z,68.17
2023-05-17T05:34:07.649Z,67.28
2023-05-17T05:36:35.248Z,67.00
2023-05-17T05:39:02.837Z,67.50
2023-05-17T05:41:31.426Z,68.81
2023-05-17T05:43:59.456Z,67.93
2023-05-17T05:46:27.045Z,69.51
2023-05-17T05:48:55.005Z,67.70
2023-05-17T05:51:22.861Z,67.63
2023-05-17T05:53:51.486Z,68.59
2023-05-17T05:56:20.126Z,68.50
2023-05-17T05:58:47.599Z,68.00
2023-05-17T06:01:15.091Z,67.87
2023-05-17T06:03:42.812Z,67.21
2023-05-17T06:06:10.864Z,67.90
2023-05-17T06:08:38.563Z,67.62
2023-05-17T06:11:06.388Z,67.26
2023-05-17T06:13:33.863Z,67.95
2023-05-17T06:16:01.377Z,70.68
2023-05-17T06:18:29.275Z,68.76
2023-05-17T06:20:56.773Z,67.87
2023-05-17T06:23:24.516Z,68.86
2023-05-17T06:25:52.686Z,68.21
2023-05-17T06:28:20.210Z,69.17
2023-05-17T06:30:47.857Z,69.43
2023-05-17T06:33:15.940Z,69.71
2023-05-17T06:35:55.675Z,70.88
2023-05-17T06:38:25.377Z,70.50
2023-05-17T06:40:55.878Z,69.94
2023-05-17T06:43:23.389Z,69.54
2023-05-17T06:45:51.470Z,68.04
2023-05-17T06:48:19.232Z,69.01
2023-05-17T06:50:46.859Z,69.20
2023-05-17T06:53:14.626Z,69.52
2023-05-17T06:55:43.162Z,69.70
2023-05-17T06:58:10.743Z,68.61
2023-05-17T07:00:38.509Z,68.61
2023-05-17T07:03:06.101Z,68.96
2023-05-17T07:05:34.091Z,68.26
2023-05-17T07:08:02.165Z,68.24
2023-05-17T07:10:29.762Z,67.42
2023-05-17T07:12:57.242Z,68.35
2023-05-17T07:15:25.155Z,68.25
2023-05-17T07:17:52.648Z,68.35
2023-05-17T07:20:20.635Z,68.29
2023-05-17T07:22:48.584Z,66.96
2023-05-17T07:25:18.082Z,66.49
2023-05-17T07:27:47.916Z,67.78
2023-05-17T07:30:15.691Z,67.03
2023-05-17T07:32:43.275Z,66.75
2023-05-17T07:35:11.004Z,69.37
2023-05-17T07:37:38.734Z,67.98
2023-05-17T07:40:06.956Z,67.12
2023-05-17T07:42:34.526Z,66.42
2023-05-17T07:45:02.476Z,67.12
2023-05-17T07:47:30.857Z,66.86
2023-05-17T07:49:58.375Z,66.75
2023-05-17T07:52:26.147Z,66.58
2023-05-17T07:54:53.596Z,67.35
2023-05-17T07:57:21.309Z,65.59
2023-05-17T07:59:49.069Z,65.97
2023-05-17T08:02:16.602Z,65.43
2023-05-17T08:04:45.332Z,67.38
2023-05-17T08:07:12.812Z,66.71
2023-05-17T08:09:41.404Z,68.75
2023-05-17T08:12:09.194Z,68.96
2023-05-17T08:14:36.706Z,67.53
2023-05-17T08:17:04.457Z,66.50
2023-05-17T08:19:32.385Z,67.86
2023-05-17T08:21:59.934Z,68.59
2023-05-17T08:24:27.528Z,66.77
2023-05-17T08:26:55.295Z,66.83
2023-05-17T08:29:22.817Z,68.29
2023-05-17T08:31:51.691Z,70.53
2023-05-17T08:34:19.471Z,67.40
2023-05-17T08:36:47.628Z,67.14
2023-05-17T08:39:15.539Z,67.67
2023-05-17T08:41:43.339Z,66.72
2023-05-17T08:44:11.093Z,66.60
2023-05-17T08:46:40.012Z,66.56
2023-05-17T08:49:08.521Z,67.03
2023-05-17T08:51:36.551Z,66.52
2023-05-17T08:54:08.448Z,66.35
2023-05-17T08:56:39.530Z,67.36
2023-05-17T08:59:10.412Z,66.41
2023-05-17T09:01:43.495Z,66.07
2023-05-17T09:04:11.313Z,66.07
2023-05-17T09:06:39.104Z,66.84
2023-05-17T09:09:09.136Z,67.32
2023-05-17T09:11:36.649Z,67.67
2023-05-17T09:14:05.954Z,66.82
2023-05-17T09:16:37.546Z,67.76
2023-05-17T09:19:07.502Z,67.69
2023-05-17T09:21:37.313Z,66.08
2023-05-17T09:24:08.042Z,70.50
2023-05-17T09:26:39.243Z,69.74
2023-05-17T09:29:14.437Z,69.33
2023-05-17T09:31:42.684Z,69.29
2023-05-17T09:34:10.694Z,67.37
2023-05-17T09:36:42.217Z,68.77
2023-05-17T09:39:12.892Z,66.77
2023-05-17T09:41:43.625Z,66.41
2023-05-17T09:44:12.237Z,65.81
2023-05-17T09:46:45.519Z,65.76
2023-05-17T09:49:14.141Z,65.63
2023-05-17T09:51:43.126Z,65.59
2023-05-17T09:54:11.384Z,65.53
2023-05-17T09:56:39.448Z,64.99
2023-05-17T09:59:15.400Z,65.33
2023-05-17T10:01:45.331Z,66.04
2023-05-17T10:04:13.969Z,66.42
2023-05-17T10:09:14.279Z,66.16
2023-05-17T10:11:44.287Z,65.13
2023-05-17T10:14:24.997Z,65.30
2023-05-17T10:16:53.670Z,66.59
2023-05-17T10:19:21.754Z,66.67
2023-05-17T10:21:51.180Z,68.35
2023-05-17T10:24:21.583Z,67.72
2023-05-17T10:26:52.207Z,67.35
2023-05-17T10:29:21.376Z,69.13
2023-05-17T10:31:51.183Z,68.12
2023-05-17T10:34:20.089Z,68.31
2023-05-17T10:36:50.047Z,67.52
2023-05-17T10:39:18.088Z,70.35
2023-05-17T10:41:46.876Z,70.98
2023-05-17T10:44:16.408Z,68.54
2023-05-17T10:46:57.624Z,68.12
2023-05-17T10:49:29.865Z,68.79
2023-05-17T10:52:18.443Z,70.10
2023-05-17T10:54:49.445Z,67.71
2023-05-17T10:57:49.121Z,67.94
2023-05-17T11:00:22.021Z,69.22
2023-05-17T11:02:50.903Z,69.24
2023-05-17T11:05:26.168Z,67.62
2023-05-17T11:08:13.048Z,68.42
2023-05-17T11:11:10.498Z,68.46
2023-05-17T11:13:52.223Z,67.58
2023-05-17T11:16:28.671Z,68.47
2023-05-17T11:18:58.455Z,66.98
2023-05-17T11:21:28.513Z,67.33
2023-05-17T11:24:01.601Z,67.73
2023-05-17T11:26:34.629Z,67.76
2023-05-17T11:29:12.389Z,70.11
2023-05-17T11:31:44.967Z,68.21
2023-05-17T11:34:12.615Z,69.31
2023-05-17T11:36:51.876Z,70.34
2023-05-17T11:39:22.137Z,68.33
2023-05-17T11:41:51.697Z,68.44
2023-05-17T11:44:29.569Z,70.04
2023-05-17T11:47:02.930Z,67.84
2023-05-17T11:49:35.624Z,67.41
2023-05-17T11:52:05.696Z,66.23
2023-05-17T11:54:33.839Z,65.18
2023-05-17T11:57:03.883Z,67.40
2023-05-17T11:59:39.889Z,66.47
2023-05-17T12:02:07.735Z,68.92
2023-05-17T12:04:39.882Z,66.29
2023-05-17T12:07:11.216Z,69.98
2023-05-17T12:09:39.784Z,69.45
2023-05-17T12:12:08.644Z,67.87
2023-05-17T12:14:36.659Z,67.29
2023-05-17T12:17:08.780Z,66.39
2023-05-17T12:19:37.401Z,68.31
2023-05-17T12:22:12.494Z,66.69
2023-05-17T12:24:42.449Z,67.21
2023-05-17T12:27:10.669Z,66.86
2023-05-17T12:29:39.137Z,69.15
2023-05-17T12:32:08.753Z,66.45
2023-05-17T12:34:37.037Z,67.16
2023-05-17T12:37:10.192Z,64.58
2023-05-17T12:39:38.180Z,67.52
2023-05-17T12:42:06.134Z,66.16
2023-05-17T12:44:33.721Z,67.42
2023-05-17T12:47:02.951Z,66.73
2023-05-17T12:49:30.498Z,64.21
2023-05-17T12:52:04.354Z,65.34
2023-05-17T12:54:33.185Z,66.47
2023-05-17T12:57:12.572Z,66.50
2023-05-17T12:59:48.208Z,65.91
2023-05-17T13:02:16.266Z,65.38
2023-05-17T13:04:44.316Z,66.43
2023-05-17T13:07:12.450Z,66.25
2023-05-17T13:09:49.862Z,65.45
2023-05-17T13:12:22.866Z,66.65
2023-05-17T13:14:53.179Z,65.81
2023-05-17T13:17:35.147Z,65.43
2023-05-17T13:20:03.473Z,64.80
2023-05-17T13:22:31.484Z,64.91
2023-05-17T13:24:58.947Z,63.74
2023-05-17T13:27:26.372Z,66.00
2023-05-17T13:29:54.115Z,63.68
2023-05-17T13:32:21.818Z,62.70
2023-05-17T13:34:49.425Z,62.92
2023-05-17T13:37:17.283Z,64.44
2023-05-17T13:39:44.827Z,65.84
2023-05-17T13:42:12.932Z,63.46
2023-05-17T13:44:40.878Z,65.57
2023-05-17T13:47:08.439Z,64.82
2023-05-17T13:49:36.237Z,67.53
2023-05-17T13:52:04.139Z,66.16
2023-05-17T13:54:31.689Z,64.48
2023-05-17T13:56:59.339Z,64.71
2023-05-17T13:59:27.287Z,66.65
2023-05-17T14:01:54.782Z,65.84
2023-05-17T14:04:22.718Z,66.01
2023-05-17T14:06:54.793Z,65.18
2023-05-17T14:09:34.561Z,64.49
2023-05-17T14:12:02.182Z,64.35
2023-05-17T14:14:30.522Z,64.59
2023-05-17T14:16:58.075Z,62.92
2023-05-17T14:19:25.844Z,64.40
2023-05-17T14:21:53.757Z,64.41
2023-05-17T14:24:21.240Z,64.17
2023-05-17T14:26:48.781Z,63.16
2023-05-17T14:29:16.885Z,63.19
2023-05-17T14:31:44.350Z,64.22
2023-05-17T14:34:14.373Z,66.19
2023-05-17T14:36:42.220Z,66.31
2023-05-17T14:39:10.452Z,63.93
2023-05-17T14:41:39.364Z,64.75
2023-05-17T14:44:07.164Z,65.99
2023-05-17T14:46:35.005Z,64.92
2023-05-17T14:49:02.566Z,63.73
2023-05-17T14:51:30.556Z,64.12
2023-05-17T14:53:59.136Z,65.63
2023-05-17T14:56:27.772Z,64.76
2023-05-17T14:58:55.545Z,64.75
2023-05-17T15:01:23.323Z,66.14
2023-05-17T15:03:51.284Z,64.57
2023-05-17T15:06:24.781Z,65.94
2023-05-17T15:08:52.725Z,63.84
2023-05-17T15:11:21.864Z,66.62
2023-05-17T15:13:49.390Z,66.73
2023-05-17T15:16:16.892Z,67.25
2023-05-17T15:18:44.749Z,67.10
2023-05-17T15:21:12.286Z,67.24
2023-05-17T15:23:39.798Z,65.49
2023-05-17T15:26:07.709Z,66.34
2023-05-17T15:28:35.168Z,64.83
2023-05-17T15:31:06.276Z,66.35
2023-05-17T15:33:34.136Z,67.55
2023-05-17T15:36:01.764Z,67.09
2023-05-17T15:38:29.221Z,67.35
2023-05-17T15:41:07.524Z,69.25
2023-05-17T15:43:35.165Z,67.24
2023-05-17T15:46:02.877Z,69.44
2023-05-17T15:48:30.684Z,66.77
2023-05-17T15:50:58.646Z,66.97
2023-05-17T15:53:27.276Z,66.90
2023-05-17T15:55:55.142Z,66.91
2023-05-17T15:58:24.244Z,67.90
2023-05-17T16:00:51.967Z,67.84
2023-05-17T16:03:19.788Z,69.04
2023-05-17T16:05:47.508Z,66.65
2023-05-17T16:08:15.026Z,66.39
2023-05-17T16:10:42.864Z,66.53
2023-05-17T16:13:10.293Z,67.13
2023-05-17T16:15:37.865Z,66.35
2023-05-17T16:18:05.706Z,67.75
2023-05-17T16:20:33.874Z,69.00
2023-05-17T16:23:01.356Z,67.79
2023-05-17T16:25:29.337Z,67.50
2023-05-17T16:28:14.492Z,67.88
2023-05-17T16:30:42.308Z,69.14
2023-05-17T16:33:09.924Z,68.21
2023-05-17T16:35:37.486Z,68.53
2023-05-17T16:38:05.304Z,68.31
2023-05-17T16:40:33.057Z,69.14
2023-05-17T16:43:00.580Z,70.29
2023-05-17T16:45:28.437Z,69.36
2023-05-17T16:47:56.210Z,68.30
2023-05-17T16:50:23.802Z,68.87
2023-05-17T16:52:51.897Z,68.71
2023-05-17T16:55:19.444Z,67.57
2023-05-17T16:57:46.910Z,66.89
2023-05-17T17:00:15.077Z,68.51
2023-05-17T17:02:42.553Z,67.19
2023-05-17T17:05:10.501Z,68.21
2023-05-17T17:07:38.280Z,68.40
2023-05-17T17:10:06.359Z,68.46
2023-05-17T17:12:33.830Z,68.74
2023-05-17T17:15:02.272Z,68.73
2023-05-17T17:17:30.241Z,67.41
2023-05-17T17:19:57.806Z,67.52
2023-05-17T17:22:25.647Z,67.02
2023-05-17T17:24:53.483Z,67.82
2023-05-17T17:27:20.985Z,70.52
2023-05-17T17:29:48.778Z,68.06
2023-05-17T17:32:16.475Z,67.18
2023-05-17T17:34:44.073Z,69.59
2023-05-17T17:37:11.878Z,66.60
2023-05-17T17:39:39.509Z,67.53
2023-05-17T17:42:07.044Z,67.77
2023-05-17T17:44:35.058Z,68.30
2023-05-17T17:47:02.581Z,66.67
2023-05-17T17:49:30.313Z,66.91
2023-05-17T17:51:58.316Z,68.23
2023-05-17T17:54:26.040Z,66.72
2023-05-17T17:56:53.511Z,67.25
2023-05-17T17:59:21.398Z,64.99
2023-05-17T18:01:49.174Z,65.72
2023-05-17T18:04:16.940Z,67.36
2023-05-17T18:06:45.894Z,64.50
2023-05-17T18:09:13.386Z,66.16
2023-05-17T18:11:41.168Z,65.75
2023-05-17T18:14:08.946Z,65.45
2023-05-17T18:16:36.493Z,65.23
2023-05-17T18:19:04.686Z,65.24
2023-05-17T18:21:32.398Z,64.41
2023-05-17T18:24:00.455Z,62.92
2023-05-17T18:26:28.343Z,64.28
2023-05-17T18:28:55.968Z,63.51
2023-05-17T18:31:23.438Z,62.80
2023-05-17T18:33:51.314Z,64.23
2023-05-17T18:36:19.098Z,65.72
2023-05-17T18:38:46.773Z,64.18
2023-05-17T18:41:14.833Z,65.86
2023-05-17T18:43:42.371Z,64.11
2023-05-17T18:46:10.447Z,65.95
2023-05-17T18:48:39.148Z,65.55
2023-05-17T18:51:06.958Z,66.91
2023-05-17T18:53:36.167Z,65.98
2023-05-17T18:56:04.506Z,66.43
2023-05-17T18:58:32.153Z,65.51
2023-05-17T19:01:01.594Z,65.58
2023-05-17T19:03:29.913Z,66.47
2023-05-17T19:05:57.505Z,66.59
2023-05-17T19:08:25.422Z,65.01
2023-05-17T19:10:53.177Z,67.36
2023-05-17T19:13:20.705Z,66.64
2023-05-17T19:15:48.558Z,65.71
2023-05-17T19:18:16.540Z,65.96
2023-05-17T19:20:44.188Z,67.87
2023-05-17T19:23:12.181Z,66.88
2023-05-17T19:25:40.412Z,66.99
2023-05-17T19:28:11.798Z,65.23
2023-05-17T19:30:39.348Z,65.43
2023-05-17T19:33:07.466Z,64.47
2023-05-17T19:35:37.135Z,64.97
2023-05-17T19:38:04.859Z,65.12
2023-05-17T19:40:32.844Z,65.96
2023-05-17T19:43:02.121Z,64.94
2023-05-17T19:45:29.678Z,64.88
2023-05-17T19:47:57.936Z,65.04
2023-05-17T19:50:25.601Z,64.47
2023-05-17T19:53:01.018Z,65.32
2023-05-17T19:55:30.422Z,64.91
2023-05-17T19:57:58.094Z,66.47
2023-05-17T20:00:25.957Z,64.27
2023-05-17T20:02:54.341Z,64.00
2023-05-17T20:05:22.194Z,65.19
2023-05-17T20:07:49.693Z,63.48
2023-05-17T20:10:17.710Z,65.71
2023-05-17T20:12:45.240Z,68.78
2023-05-17T20:15:12.898Z,65.66
2023-05-17T20:17:40.796Z,64.99
2023-05-17T20:20:08.880Z,64.94
2023-05-17T20:22:37.782Z,62.93
2023-05-17T20:25:06.036Z,62.30
2023-05-17T20:27:33.540Z,66.06
2023-05-17T20:30:01.068Z,63.92
2023-05-17T20:32:29.249Z,64.63
2023-05-17T20:34:56.803Z,62.17
2023-05-17T20:37:24.463Z,64.32
2023-05-17T20:39:53.652Z,63.52
2023-05-17T20:42:22.427Z,63.53
2023-05-17T20:44:53.537Z,63.21
2023-05-17T20:47:22.633Z,64.95
2023-05-17T20:49:50.440Z,66.62
2023-05-17T20:52:27.779Z,66.75
2023-05-17T20:55:08.062Z,66.02
2023-05-17T20:57:35.758Z,63.72
2023-05-17T21:00:05.387Z,65.12
2023-05-17T21:02:33.634Z,64.50
2023-05-17T21:05:03.335Z,66.64
2023-05-17T21:07:31.605Z,66.79
2023-05-17T21:09:59.416Z,65.19
2023-05-17T21:12:26.897Z,65.05
2023-05-17T21:15:14.408Z,64.66
2023-05-17T21:17:42.388Z,65.08
2023-05-17T21:20:10.450Z,64.22
2023-05-17T21:22:38.084Z,64.60
2023-05-17T21:25:06.285Z,63.64
2023-05-17T21:27:34.164Z,63.75
2023-05-17T21:30:01.643Z,65.05
2023-05-17T21:32:30.006Z,63.91
2023-05-17T21:34:59.654Z,64.14
2023-05-17T21:37:27.311Z,63.77
2023-05-17T21:39:55.107Z,64.41
2023-05-17T21:42:22.633Z,64.38
2023-05-17T21:44:50.108Z,64.93
2023-05-17T21:47:17.819Z,64.65
2023-05-17T21:49:45.464Z,64.76
2023-05-17T21:52:12.970Z,63.05
2023-05-17T21:54:41.406Z,64.43
2023-05-17T21:57:08.913Z,67.00
2023-05-17T21:59:36.554Z,64.08
2023-05-17T22:02:04.468Z,63.99
2023-05-17T22:04:32.253Z,64.15
2023-05-17T22:06:59.795Z,65.22
2023-05-17T22:09:27.303Z,65.68
2023-05-17T22:11:58.731Z,68.69
2023-05-17T22:14:27.454Z,65.95
2023-05-17T22:16:56.715Z,66.42
2023-05-17T22:19:24.756Z,65.77
2023-05-17T22:21:52.306Z,65.96
2023-05-17T22:24:20.502Z,65.85
2023-05-17T22:26:47.970Z,67.02
2023-05-17T22:29:15.488Z,65.39
2023-05-17T22:31:43.285Z,66.90
2023-05-17T22:34:10.948Z,66.08
2023-05-17T22:36:42.287Z,65.69
2023-05-17T22:39:10.090Z,66.90
2023-05-17T22:41:37.667Z,66.55
2023-05-17T22:44:05.234Z,65.73
2023-05-17T22:46:33.367Z,65.30
2023-05-17T22:49:01.666Z,66.89
2023-05-17T22:51:30.169Z,67.28
2023-05-17T22:53:58.103Z,65.29
2023-05-17T22:56:26.235Z,66.16
2023-05-17T22:58:53.734Z,66.55
2023-05-17T23:01:21.513Z,64.86
2023-05-17T23:03:49.001Z,62.77
2023-05-17T23:06:16.706Z,64.03
2023-05-17T23:08:45.462Z,62.96
2023-05-17T23:11:13.878Z,64.76
2023-05-17T23:13:42.088Z,64.69
2023-05-17T23:16:10.742Z,64.76
2023-05-17T23:18:40.222Z,64.82
2023-05-17T23:21:08.293Z,64.15
2023-05-17T23:23:38.113Z,64.79
2023-05-17T23:26:06.058Z,65.00
2023-05-17T23:28:33.547Z,65.80
2023-05-17T23:31:02.383Z,63.30
2023-05-17T23:33:31.377Z,62.05
2023-05-17T23:35:58.945Z,62.44
2023-05-17T23:38:26.767Z,61.76
2023-05-17T23:40:54.432Z,63.60
2023-05-17T23:43:22.000Z,62.94
2023-05-17T23:45:49.741Z,64.74
2023-05-17T23:48:20.773Z,62.07
2023-05-17T23:50:48.321Z,63.66
2023-05-17T23:53:18.586Z,64.16
2023-05-17T23:55:46.221Z,65.59
2023-05-17T23:58:13.658Z,64.41
